createdAt,value
2023-05-03T00:01:51.895Z,103028.00
2023-05-03T00:12:13.884Z,103033.00
2023-05-03T00:22:37.406Z,103039.00
2023-05-03T00:32:59.379Z,103038.00
2023-05-03T00:43:22.622Z,103047.00
2023-05-03T00:53:44.521Z,103049.00
2023-05-03T01:04:07.836Z,103049.00
2023-05-03T01:14:37.670Z,103048.00
2023-05-03T01:25:07.572Z,103060.00
2023-05-03T01:35:34.948Z,103061.00
2023-05-03T01:45:59.335Z,103068.00
2023-05-03T01:56:21.651Z,103066.00
2023-05-03T02:06:45.448Z,103067.00
2023-05-03T02:17:08.588Z,103074.00
2023-05-03T02:27:31.658Z,103077.00
2023-05-03T02:37:53.345Z,103084.00
2023-05-03T02:48:17.323Z,103085.00
2023-05-03T02:58:39.319Z,103103.00
2023-05-03T03:09:02.976Z,103104.00
2023-05-03T03:19:24.628Z,103113.00
2023-05-03T03:29:47.716Z,103134.00
2023-05-03T03:40:10.701Z,103133.00
2023-05-03T03:50:35.407Z,103140.00
2023-05-03T04:00:57.756Z,103145.00
2023-05-03T04:11:23.597Z,103162.00
2023-05-03T04:21:49.894Z,103151.00
2023-05-03T04:32:16.886Z,103167.00
2023-05-03T04:42:38.625Z,103185.00
2023-05-03T04:53:04.103Z,103172.00
2023-05-03T05:03:30.302Z,103183.00
2023-05-03T05:13:55.131Z,103166.00
2023-05-03T05:24:17.501Z,103171.00
2023-05-03T05:34:45.647Z,103173.00
2023-05-03T05:45:12.370Z,103174.00
2023-05-03T05:55:36.969Z,103166.00
2023-05-03T06:05:59.663Z,103187.00
2023-05-03T06:16:23.117Z,103173.00
2023-05-03T06:26:44.772Z,103191.00
2023-05-03T06:37:08.160Z,103191.00
2023-05-03T06:47:30.042Z,103185.00
2023-05-03T06:57:53.866Z,103188.00
2023-05-03T07:08:15.403Z,103188.00
2023-05-03T07:18:38.201Z,103184.00
2023-05-03T07:28:59.982Z,103200.00
2023-05-03T07:39:22.754Z,103165.00
2023-05-03T07:49:44.432Z,103166.00
2023-05-03T08:00:12.802Z,103142.00
2023-05-03T08:10:37.827Z,103156.00
2023-05-03T08:21:10.027Z,103104.00
2023-05-03T08:31:31.716Z,103145.00
2023-05-03T08:41:55.446Z,103115.00
2023-05-03T08:52:18.319Z,103114.00
2023-05-03T09:02:42.121Z,103128.00
2023-05-03T09:13:06.713Z,103113.00
2023-05-03T09:23:33.396Z,103135.00
2023-05-03T09:33:57.283Z,103172.00
2023-05-03T09:44:20.627Z,103153.00
2023-05-03T09:54:43.285Z,103127.00
2023-05-03T10:05:08.202Z,103093.00
2023-05-03T10:16:08.440Z,103087.00
2023-05-03T10:26:32.153Z,103122.00
2023-05-03T10:36:54.421Z,103081.00
2023-05-03T10:47:18.017Z,103110.00
2023-05-03T10:57:41.842Z,103077.00
2023-05-03T11:08:13.318Z,103051.00
2023-05-03T11:18:37.208Z,103085.00
2023-05-03T11:29:00.341Z,103051.00
2023-05-03T11:39:34.068Z,103040.00
2023-05-03T11:49:58.545Z,103026.00
2023-05-03T12:00:21.971Z,103043.00
2023-05-03T12:10:45.886Z,103038.00
2023-05-03T12:21:31.080Z,103049.00
2023-05-03T12:31:51.835Z,103011.00
2023-05-03T12:42:21.840Z,103006.00
2023-05-03T12:52:45.884Z,103004.00
2023-05-03T13:13:33.965Z,103002.00
2023-05-03T13:23:56.019Z,102981.00
2023-05-03T13:34:19.150Z,102953.00
2023-05-03T13:44:41.016Z,102954.00
2023-05-03T13:55:04.302Z,102924.00
2023-05-03T14:05:26.276Z,102930.00
2023-05-03T14:15:49.551Z,102914.00
2023-05-03T14:26:11.501Z,102901.00
2023-05-03T14:36:38.766Z,102911.00
2023-05-03T14:47:01.188Z,102905.00
2023-05-03T14:57:24.313Z,102907.00
2023-05-03T15:07:46.033Z,102888.00
2023-05-03T15:18:10.027Z,102905.00
2023-05-03T15:28:32.194Z,102903.00
2023-05-03T15:38:55.389Z,102880.00
2023-05-03T15:49:17.094Z,102880.00
2023-05-03T15:59:40.196Z,102871.00
2023-05-03T16:10:02.171Z,102860.00
2023-05-03T16:20:25.292Z,102870.00
2023-05-03T16:30:46.863Z,102862.00
2023-05-03T16:41:09.963Z,102864.00
2023-05-03T16:51:31.869Z,102862.00
2023-05-03T17:01:54.875Z,102866.00
2023-05-03T17:12:16.350Z,102876.00
2023-05-03T17:22:39.348Z,102874.00
2023-05-03T17:33:12.273Z,102879.00
2023-05-03T17:43:35.684Z,102877.00
2023-05-03T17:53:57.155Z,102901.00
2023-05-03T18:04:19.963Z,102906.00
2023-05-03T18:14:41.690Z,102924.00
2023-05-03T18:25:25.991Z,102949.00
2023-05-03T18:35:55.198Z,102959.00
2023-05-03T18:46:21.353Z,102968.00
2023-05-03T18:57:07.383Z,102985.00
2023-05-03T19:07:30.384Z,102986.00
2023-05-03T19:17:52.596Z,102978.00
2023-05-03T19:28:15.837Z,103000.00
2023-05-03T19:38:37.718Z,102998.00
2023-05-03T19:49:00.692Z,102991.00
2023-05-03T19:59:22.489Z,103004.00
2023-05-03T20:09:45.377Z,103008.00
2023-05-03T20:20:08.391Z,103001.00
2023-05-03T20:30:32.143Z,103011.00
2023-05-03T20:40:53.760Z,103024.00
2023-05-03T20:51:16.722Z,103014.00
2023-05-03T21:01:40.559Z,103006.00
2023-05-03T21:12:04.110Z,103007.00
2023-05-03T21:22:26.870Z,103026.00
2023-05-03T21:32:50.174Z,103014.00
2023-05-03T21:43:11.467Z,103019.00
2023-05-03T21:53:35.465Z,103023.00
2023-05-03T22:04:50.155Z,103028.00
2023-05-03T22:15:13.545Z,103021.00
2023-05-03T22:25:35.260Z,103006.00
2023-05-03T22:35:58.897Z,103010.00
2023-05-03T22:46:21.126Z,103009.00
2023-05-03T22:56:44.603Z,103011.00
2023-05-03T23:07:06.142Z,103020.00
2023-05-03T23:17:28.947Z,103006.00
2023-05-03T23:27:50.625Z,103018.00
2023-05-03T23:38:15.485Z,103008.00
2023-05-03T23:48:37.052Z,103007.00
2023-05-03T23:59:00.024Z,103010.00
